createdAt,value
2022-08-19T00:01:53.362Z,18.33
2022-08-19T00:04:23.196Z,18.20
2022-08-19T00:06:49.778Z,18.03
2022-08-19T00:09:18.326Z,17.97
2022-08-19T00:11:46.034Z,18.11
2022-08-19T00:14:15.815Z,18.11
2022-08-19T00:16:44.694Z,18.04
2022-08-19T00:19:11.491Z,17.85
2022-08-19T00:21:37.850Z,17.77
2022-08-19T00:24:04.251Z,17.57
2022-08-19T00:26:30.679Z,17.49
2022-08-19T00:28:57.026Z,17.37
2022-08-19T00:31:23.578Z,17.54
2022-08-19T00:33:49.936Z,17.50
2022-08-19T00:36:16.311Z,17.48
2022-08-19T00:38:42.639Z,17.60
2022-08-19T00:41:10.104Z,17.69
2022-08-19T00:43:36.609Z,17.77
2022-08-19T00:46:03.019Z,17.74
2022-08-19T00:48:29.456Z,17.67
2022-08-19T00:50:56.239Z,17.69
2022-08-19T00:53:25.044Z,17.65
2022-08-19T00:55:54.461Z,17.58
2022-08-19T00:58:23.122Z,17.53
2022-08-19T01:00:49.682Z,17.67
2022-08-19T01:03:19.755Z,17.67
2022-08-19T01:05:48.411Z,17.55
2022-08-19T01:08:17.171Z,17.39
2022-08-19T01:10:47.910Z,17.08
2022-08-19T01:13:20.975Z,17.05
2022-08-19T01:15:51.830Z,16.97
2022-08-19T01:18:19.961Z,16.82
2022-08-19T01:20:46.970Z,16.79
2022-08-19T01:23:14.003Z,16.91
2022-08-19T01:25:48.222Z,17.07
2022-08-19T01:28:39.701Z,17.15
2022-08-19T01:31:09.366Z,17.27
2022-08-19T01:33:35.708Z,17.32
2022-08-19T01:36:08.141Z,17.25
2022-08-19T01:38:38.165Z,17.30
2022-08-19T01:41:12.564Z,17.28
2022-08-19T01:43:39.189Z,17.19
2022-08-19T01:46:25.513Z,17.10
2022-08-19T01:48:51.889Z,16.99
2022-08-19T01:51:18.285Z,16.77
2022-08-19T01:53:48.534Z,16.74
2022-08-19T01:56:15.218Z,16.68
2022-08-19T01:58:50.113Z,16.58
2022-08-19T02:01:16.456Z,16.47
2022-08-19T02:03:42.855Z,16.52
2022-08-19T02:06:09.424Z,16.42
2022-08-19T02:08:39.613Z,16.41
2022-08-19T02:11:07.087Z,16.53
2022-08-19T02:13:34.212Z,16.47
2022-08-19T02:16:01.168Z,16.41
2022-08-19T02:18:30.725Z,16.49
2022-08-19T02:20:57.071Z,16.44
2022-08-19T02:23:23.460Z,16.39
2022-08-19T02:25:52.234Z,16.35
2022-08-19T02:28:19.162Z,16.30
2022-08-19T02:30:46.862Z,16.17
2022-08-19T02:33:13.227Z,16.02
2022-08-19T02:35:43.051Z,15.89
2022-08-19T02:38:09.454Z,15.80
2022-08-19T02:40:36.066Z,15.82
2022-08-19T02:43:04.935Z,15.89
2022-08-19T02:45:37.264Z,15.93
2022-08-19T02:48:14.867Z,15.95
2022-08-19T02:50:53.379Z,15.92
2022-08-19T02:53:20.230Z,15.88
2022-08-19T02:55:47.571Z,15.82
2022-08-19T02:58:15.684Z,15.78
2022-08-19T03:00:57.223Z,15.77
2022-08-19T03:03:23.712Z,15.78
2022-08-19T03:05:56.482Z,15.70
2022-08-19T03:08:24.603Z,15.60
2022-08-19T03:10:50.958Z,15.53
2022-08-19T03:13:18.790Z,15.61
2022-08-19T03:15:48.159Z,15.76
2022-08-19T03:18:15.507Z,15.76
2022-08-19T03:20:50.003Z,15.73
2022-08-19T03:23:17.803Z,15.77
2022-08-19T03:25:46.910Z,15.69
2022-08-19T03:28:24.494Z,15.65
2022-08-19T03:30:58.733Z,15.70
2022-08-19T03:33:29.059Z,15.67
2022-08-19T03:36:14.814Z,15.58
2022-08-19T03:38:46.754Z,15.54
2022-08-19T03:41:16.078Z,15.50
2022-08-19T03:43:43.071Z,15.37
2022-08-19T03:46:15.597Z,15.40
2022-08-19T03:48:43.830Z,15.47
2022-08-19T03:51:18.313Z,15.48
2022-08-19T03:53:58.250Z,15.57
2022-08-19T03:56:25.480Z,15.67
2022-08-19T03:58:52.732Z,15.72
2022-08-19T04:01:22.243Z,15.72
2022-08-19T04:04:04.641Z,15.69
2022-08-19T04:06:33.759Z,15.79
2022-08-19T04:09:01.763Z,15.65
2022-08-19T04:11:42.860Z,15.49
2022-08-19T04:14:16.333Z,15.49
2022-08-19T04:16:43.931Z,15.47
2022-08-19T04:19:10.300Z,15.43
2022-08-19T04:21:36.743Z,15.41
2022-08-19T04:24:04.362Z,15.53
2022-08-19T04:26:33.722Z,15.56
2022-08-19T04:29:02.437Z,16.03
2022-08-19T04:31:30.820Z,16.04
2022-08-19T04:33:59.299Z,15.88
2022-08-19T04:36:29.907Z,15.77
2022-08-19T04:39:04.513Z,15.63
2022-08-19T04:41:30.874Z,15.64
2022-08-19T04:44:00.184Z,15.73
2022-08-19T04:46:40.200Z,15.84
2022-08-19T04:49:19.539Z,16.00
2022-08-19T04:51:47.328Z,16.13
2022-08-19T04:54:14.440Z,16.31
2022-08-19T04:56:45.393Z,16.21
2022-08-19T04:59:11.754Z,16.57
2022-08-19T05:01:38.342Z,16.65
2022-08-19T05:04:06.929Z,16.64
2022-08-19T05:06:34.102Z,16.46
2022-08-19T05:09:04.399Z,16.69
2022-08-19T05:11:36.352Z,16.84
2022-08-19T05:14:02.734Z,16.73
2022-08-19T05:16:29.223Z,16.54
2022-08-19T05:18:56.336Z,16.52
2022-08-19T05:21:23.015Z,16.52
2022-08-19T05:23:49.374Z,16.78
2022-08-19T05:26:15.702Z,16.79
2022-08-19T05:28:42.038Z,16.82
2022-08-19T05:31:08.380Z,17.10
2022-08-19T05:33:34.721Z,17.06
2022-08-19T05:36:03.323Z,17.08
2022-08-19T05:38:29.756Z,17.14
2022-08-19T05:40:56.106Z,17.29
2022-08-19T05:43:22.579Z,17.58
2022-08-19T05:45:48.914Z,17.90
2022-08-19T05:48:15.269Z,18.05
2022-08-19T05:50:42.699Z,18.05
2022-08-19T05:53:09.064Z,18.34
2022-08-19T05:55:36.089Z,19.19
2022-08-19T05:58:02.424Z,19.74
2022-08-19T06:00:28.804Z,20.13
2022-08-19T06:02:55.332Z,19.99
2022-08-19T06:05:21.903Z,20.01
2022-08-19T06:07:48.321Z,20.37
2022-08-19T06:10:14.799Z,20.80
2022-08-19T06:12:41.143Z,20.85
2022-08-19T06:15:11.385Z,20.67
2022-08-19T06:17:38.300Z,20.85
2022-08-19T06:20:07.715Z,20.56
2022-08-19T06:22:39.514Z,21.22
2022-08-19T06:25:06.575Z,21.94
2022-08-19T06:27:33.033Z,22.48
2022-08-19T06:29:59.430Z,23.16
2022-08-19T06:32:25.782Z,23.57
2022-08-19T06:34:52.131Z,23.60
2022-08-19T06:37:18.460Z,23.69
2022-08-19T06:39:45.677Z,23.51
2022-08-19T06:42:13.327Z,23.19
2022-08-19T06:44:42.863Z,22.31
2022-08-19T06:47:14.624Z,21.87
2022-08-19T06:49:42.103Z,21.56
2022-08-19T06:52:09.405Z,21.21
2022-08-19T06:54:56.115Z,21.21
2022-08-19T06:57:27.053Z,21.31
2022-08-19T06:59:53.893Z,21.12
2022-08-19T07:02:20.605Z,20.79
2022-08-19T07:04:47.021Z,20.82
2022-08-19T07:07:19.807Z,20.73
2022-08-19T07:09:52.264Z,20.84
2022-08-19T07:12:28.006Z,20.68
2022-08-19T07:14:56.600Z,20.76
2022-08-19T07:17:24.272Z,20.97
2022-08-19T07:19:51.138Z,21.08
2022-08-19T07:22:20.420Z,21.12
2022-08-19T07:24:51.080Z,21.08
2022-08-19T07:27:18.493Z,21.26
2022-08-19T07:29:56.231Z,21.33
2022-08-19T07:32:25.577Z,21.66
2022-08-19T07:34:51.914Z,21.75
2022-08-19T07:37:18.259Z,21.37
2022-08-19T07:39:44.738Z,20.98
2022-08-19T07:42:13.436Z,21.13
2022-08-19T07:47:49.137Z,21.25
2022-08-19T07:49:58.597Z,21.49
2022-08-19T07:52:24.980Z,21.47
2022-08-19T07:54:51.366Z,21.58
2022-08-19T07:57:17.870Z,22.05
2022-08-19T07:59:44.209Z,22.40
2022-08-19T08:02:10.598Z,22.60
2022-08-19T08:04:37.067Z,22.67
2022-08-19T08:07:04.652Z,22.68
2022-08-19T08:09:39.444Z,22.58
2022-08-19T08:12:33.779Z,22.78
2022-08-19T08:15:08.549Z,22.60
2022-08-19T08:17:49.854Z,22.47
2022-08-19T08:20:18.629Z,22.44
2022-08-19T08:22:46.715Z,22.58
2022-08-19T08:25:20.643Z,22.68
2022-08-19T08:27:47.615Z,22.80
2022-08-19T08:30:23.723Z,22.66
2022-08-19T08:32:51.998Z,22.05
2022-08-19T08:35:21.714Z,21.83
2022-08-19T08:37:51.218Z,21.80
2022-08-19T08:40:31.454Z,21.76
2022-08-19T08:43:34.091Z,22.17
2022-08-19T08:46:38.407Z,22.33
2022-08-19T08:49:39.220Z,22.56
2022-08-19T08:52:08.187Z,22.47
2022-08-19T08:54:48.854Z,22.90
2022-08-19T08:57:45.233Z,23.22
2022-08-19T09:00:16.623Z,23.23
2022-08-19T09:02:44.295Z,23.02
2022-08-19T09:05:16.688Z,23.08
2022-08-19T09:07:58.819Z,23.12
2022-08-19T09:10:36.238Z,23.33
2022-08-19T09:13:37.337Z,23.44
2022-08-19T09:16:13.474Z,22.96
2022-08-19T09:18:52.443Z,23.22
2022-08-19T09:21:30.250Z,23.22
2022-08-19T09:23:59.609Z,23.35
2022-08-19T09:26:47.258Z,23.59
2022-08-19T09:29:14.409Z,23.78
2022-08-19T09:31:41.061Z,23.46
2022-08-19T09:34:07.436Z,23.40
2022-08-19T09:36:47.168Z,23.69
2022-08-19T09:39:14.913Z,23.67
2022-08-19T09:41:43.025Z,24.01
2022-08-19T09:44:14.042Z,24.10
2022-08-19T09:46:40.385Z,23.69
2022-08-19T09:49:06.989Z,23.86
2022-08-19T09:51:33.795Z,24.00
2022-08-19T09:54:04.583Z,24.42
2022-08-19T09:56:32.902Z,24.37
2022-08-19T09:59:02.148Z,24.50
2022-08-19T10:01:30.601Z,24.47
2022-08-19T10:03:59.201Z,24.54
2022-08-19T10:06:43.230Z,24.96
2022-08-19T10:09:13.161Z,25.11
2022-08-19T10:11:51.213Z,24.68
2022-08-19T10:14:19.219Z,24.48
2022-08-19T10:16:45.550Z,23.96
2022-08-19T10:19:11.898Z,24.76
2022-08-19T10:21:38.275Z,24.87
2022-08-19T10:24:07.179Z,25.07
2022-08-19T10:26:38.944Z,24.62
2022-08-19T10:29:05.860Z,24.14
2022-08-19T10:32:00.371Z,24.13
2022-08-19T10:34:27.589Z,24.33
2022-08-19T10:36:57.585Z,24.09
2022-08-19T10:39:30.771Z,24.24
2022-08-19T10:41:58.007Z,24.86
2022-08-19T10:44:24.455Z,24.55
2022-08-19T10:46:51.147Z,24.46
2022-08-19T10:49:17.540Z,25.09
2022-08-19T10:51:46.552Z,25.15
2022-08-19T10:54:15.697Z,25.22
2022-08-19T10:56:42.178Z,24.92
2022-08-19T10:59:08.715Z,24.30
2022-08-19T11:01:36.004Z,24.20
2022-08-19T11:04:04.880Z,24.67
2022-08-19T11:06:34.511Z,25.07
2022-08-19T11:09:00.872Z,25.49
2022-08-19T11:11:28.141Z,25.66
2022-08-19T11:13:54.483Z,25.70
2022-08-19T11:16:25.306Z,25.83
2022-08-19T11:18:55.048Z,26.28
2022-08-19T11:21:24.836Z,26.14
2022-08-19T11:23:54.494Z,25.94
2022-08-19T11:26:23.125Z,25.48
2022-08-19T11:28:50.033Z,25.74
2022-08-19T11:31:20.465Z,26.05
2022-08-19T11:33:48.156Z,25.95
2022-08-19T11:36:15.007Z,26.24
2022-08-19T11:38:41.627Z,26.48
2022-08-19T11:41:08.611Z,26.52
2022-08-19T11:43:37.627Z,26.93
2022-08-19T11:46:06.451Z,27.03
2022-08-19T11:48:32.808Z,26.48
2022-08-19T11:50:59.336Z,26.48
2022-08-19T11:53:25.713Z,26.17
2022-08-19T11:55:54.751Z,25.80
2022-08-19T11:58:21.106Z,25.74
2022-08-19T12:00:47.447Z,25.92
2022-08-19T12:03:14.355Z,25.87
2022-08-19T12:05:41.888Z,25.48
2022-08-19T12:08:08.728Z,25.74
2022-08-19T12:10:35.725Z,25.92
2022-08-19T12:13:02.246Z,26.24
2022-08-19T12:15:29.366Z,26.20
2022-08-19T12:18:04.735Z,26.53
2022-08-19T12:20:32.006Z,26.64
2022-08-19T12:23:01.945Z,26.48
2022-08-19T12:25:28.294Z,26.51
2022-08-19T12:27:57.425Z,27.00
2022-08-19T12:30:24.556Z,26.83
2022-08-19T12:32:51.039Z,26.72
2022-08-19T12:35:18.442Z,27.00
2022-08-19T12:37:45.123Z,26.74
2022-08-19T12:40:22.978Z,26.77
2022-08-19T12:42:49.479Z,26.79
2022-08-19T12:45:15.818Z,26.22
2022-08-19T12:47:42.989Z,26.22
2022-08-19T12:50:12.762Z,26.46
2022-08-19T12:52:39.113Z,26.51
2022-08-19T12:55:07.928Z,26.66
2022-08-19T12:57:34.635Z,26.80
2022-08-19T13:00:06.936Z,26.57
2022-08-19T13:02:38.910Z,26.79
2022-08-19T13:05:07.478Z,26.47
2022-08-19T13:07:33.944Z,26.87
2022-08-19T13:10:00.300Z,27.21
2022-08-19T13:12:26.708Z,27.43
2022-08-19T13:14:54.195Z,26.89
2022-08-19T13:17:21.327Z,27.05
2022-08-19T13:19:47.695Z,27.09
2022-08-19T13:22:15.211Z,27.08
2022-08-19T13:24:46.388Z,27.20
2022-08-19T13:27:13.775Z,27.40
2022-08-19T13:29:41.712Z,27.20
2022-08-19T13:32:09.494Z,27.59
2022-08-19T13:34:39.499Z,27.24
2022-08-19T13:37:06.236Z,26.81
2022-08-19T13:39:34.257Z,27.00
2022-08-19T13:42:01.952Z,26.97
2022-08-19T13:44:29.112Z,26.80
2022-08-19T13:46:55.443Z,27.11
2022-08-19T13:49:21.801Z,27.71
2022-08-19T13:51:48.150Z,27.93
2022-08-19T13:54:14.600Z,27.56
2022-08-19T13:56:43.548Z,27.40
2022-08-19T13:59:10.082Z,27.18
2022-08-19T14:01:37.117Z,27.39
2022-08-19T14:04:04.979Z,27.91
2022-08-19T14:06:31.331Z,27.86
2022-08-19T14:08:57.673Z,27.52
2022-08-19T14:11:24.087Z,27.28
2022-08-19T14:13:51.034Z,26.80
2022-08-19T14:16:18.401Z,26.67
2022-08-19T14:18:45.035Z,26.71
2022-08-19T14:21:23.334Z,26.88
2022-08-19T14:23:49.726Z,26.72
2022-08-19T14:26:19.153Z,27.20
2022-08-19T14:28:46.336Z,27.27
2022-08-19T14:31:14.515Z,27.71
2022-08-19T14:33:40.850Z,28.06
2022-08-19T14:36:07.557Z,27.77
2022-08-19T14:38:33.929Z,27.30
2022-08-19T14:41:16.377Z,27.16
2022-08-19T14:43:43.057Z,27.32
2022-08-19T14:46:09.406Z,27.10
2022-08-19T14:48:36.979Z,26.69
2022-08-19T14:51:08.429Z,26.85
2022-08-19T14:53:34.825Z,27.07
2022-08-19T14:56:02.066Z,27.64
2022-08-19T14:58:30.434Z,27.70
2022-08-19T15:00:58.870Z,27.77
2022-08-19T15:03:25.249Z,28.02
2022-08-19T15:05:51.591Z,28.17
2022-08-19T15:08:17.941Z,27.70
2022-08-19T15:10:44.298Z,27.60
2022-08-19T15:13:10.642Z,27.19
2022-08-19T15:15:37.020Z,27.10
2022-08-19T15:18:03.587Z,26.87
2022-08-19T15:20:30.472Z,27.46
2022-08-19T15:22:56.927Z,27.63
2022-08-19T15:25:23.280Z,26.73
2022-08-19T15:27:49.654Z,26.99
2022-08-19T15:30:21.804Z,26.99
2022-08-19T15:32:49.201Z,27.41
2022-08-19T15:35:16.725Z,27.08
2022-08-19T15:37:43.106Z,27.22
2022-08-19T15:40:09.873Z,27.46
2022-08-19T15:42:37.948Z,27.55
2022-08-19T15:45:08.516Z,27.37
2022-08-19T15:47:35.777Z,27.77
2022-08-19T15:50:21.039Z,28.16
2022-08-19T15:53:01.241Z,28.23
2022-08-19T15:55:32.841Z,28.12
2022-08-19T15:58:06.362Z,28.18
2022-08-19T16:00:34.231Z,28.51
2022-08-19T16:03:00.652Z,28.73
2022-08-19T16:05:27.267Z,28.96
2022-08-19T16:07:54.067Z,29.07
2022-08-19T16:10:27.059Z,28.91
2022-08-19T16:12:55.361Z,28.84
2022-08-19T16:15:21.845Z,28.83
2022-08-19T16:17:55.483Z,28.58
2022-08-19T16:20:24.731Z,27.66
2022-08-19T16:22:51.607Z,27.70
2022-08-19T16:25:17.996Z,27.28
2022-08-19T16:27:54.336Z,27.56
2022-08-19T16:30:30.662Z,27.87
2022-08-19T16:32:57.142Z,27.96
2022-08-19T16:35:23.495Z,27.79
2022-08-19T16:37:49.838Z,27.74
2022-08-19T16:40:16.283Z,27.73
2022-08-19T16:42:42.701Z,27.59
2022-08-19T16:45:09.369Z,27.38
2022-08-19T16:47:36.297Z,27.27
2022-08-19T16:50:03.543Z,27.41
2022-08-19T16:52:30.011Z,27.37
2022-08-19T16:54:56.385Z,27.52
2022-08-19T16:57:22.738Z,27.71
2022-08-19T16:59:49.616Z,27.71
2022-08-19T17:02:22.035Z,27.39
2022-08-19T17:04:58.120Z,27.22
2022-08-19T17:07:29.070Z,27.28
2022-08-19T17:09:56.516Z,27.14
2022-08-19T17:12:32.192Z,27.10
2022-08-19T17:15:00.443Z,26.92
2022-08-19T17:17:29.085Z,26.72
2022-08-19T17:19:55.994Z,26.64
2022-08-19T17:22:22.360Z,26.60
2022-08-19T17:24:48.715Z,26.43
2022-08-19T17:27:15.125Z,26.18
2022-08-19T17:29:45.073Z,26.04
2022-08-19T17:32:13.527Z,25.77
2022-08-19T17:34:39.891Z,25.72
2022-08-19T17:37:06.214Z,25.70
2022-08-19T17:39:32.575Z,25.43
2022-08-19T17:42:05.502Z,25.40
2022-08-19T17:44:32.256Z,25.36
2022-08-19T17:46:58.596Z,25.38
2022-08-19T17:49:24.954Z,25.29
2022-08-19T17:51:51.286Z,25.23
2022-08-19T17:54:19.299Z,25.40
2022-08-19T17:56:46.305Z,25.30
2022-08-19T17:59:14.513Z,25.20
2022-08-19T18:01:52.335Z,24.94
2022-08-19T18:04:21.050Z,24.83
2022-08-19T18:06:53.380Z,24.67
2022-08-19T18:09:27.850Z,24.55
2022-08-19T18:11:56.235Z,24.40
2022-08-19T18:14:25.604Z,24.46
2022-08-19T18:16:57.968Z,24.33
2022-08-19T18:19:26.072Z,24.36
2022-08-19T18:22:07.330Z,24.11
2022-08-19T18:24:33.667Z,24.04
2022-08-19T18:27:00.005Z,24.08
2022-08-19T18:29:26.378Z,24.04
2022-08-19T18:31:52.715Z,23.94
2022-08-19T18:34:19.063Z,23.94
2022-08-19T18:36:54.059Z,23.93
2022-08-19T18:39:20.711Z,23.79
2022-08-19T18:41:47.235Z,23.67
2022-08-19T18:44:13.564Z,23.60
2022-08-19T18:46:39.913Z,23.46
2022-08-19T18:49:06.708Z,23.26
2022-08-19T18:51:33.328Z,23.22
2022-08-19T18:54:00.194Z,23.15
2022-08-19T18:56:28.615Z,23.11
2022-08-19T18:58:55.606Z,22.94
2022-08-19T19:01:27.087Z,22.89
2022-08-19T19:03:54.872Z,22.85
2022-08-19T19:06:23.891Z,22.95
2022-08-19T19:08:52.163Z,22.94
2022-08-19T19:11:25.849Z,22.95
2022-08-19T19:13:52.525Z,22.90
2022-08-19T19:16:23.749Z,22.74
2022-08-19T19:18:50.950Z,22.56
2022-08-19T19:21:17.354Z,22.48
2022-08-19T19:23:43.690Z,22.32
2022-08-19T19:26:12.189Z,22.17
2022-08-19T19:28:40.039Z,22.06
2022-08-19T19:31:06.606Z,21.91
2022-08-19T19:33:33.068Z,21.82
2022-08-19T19:35:59.382Z,21.79
2022-08-19T19:38:25.739Z,21.79
2022-08-19T19:40:52.067Z,21.79
2022-08-19T19:43:18.499Z,21.73
2022-08-19T19:45:46.685Z,21.64
2022-08-19T19:48:13.168Z,21.61
2022-08-19T19:50:39.654Z,21.54
2022-08-19T19:53:05.987Z,21.52
2022-08-19T19:55:32.333Z,21.52
2022-08-19T19:57:58.655Z,21.48
2022-08-19T20:00:25.623Z,21.42
2022-08-19T20:02:52.176Z,21.19
2022-08-19T20:05:19.778Z,21.07
2022-08-19T20:07:46.346Z,20.98
2022-08-19T20:10:12.909Z,20.85
2022-08-19T20:12:39.461Z,20.84
2022-08-19T20:15:07.872Z,20.94
2022-08-19T20:17:34.195Z,20.93
2022-08-19T20:20:00.549Z,20.91
2022-08-19T20:22:26.944Z,20.88
2022-08-19T20:24:53.281Z,20.94
2022-08-19T20:27:19.909Z,20.96
2022-08-19T20:29:49.532Z,20.96
2022-08-19T20:32:18.788Z,20.96
2022-08-19T20:34:45.115Z,21.01
2022-08-19T20:37:11.465Z,21.02
2022-08-19T20:39:38.124Z,21.00
2022-08-19T20:42:04.799Z,20.97
2022-08-19T20:44:31.149Z,20.95
2022-08-19T20:47:01.746Z,20.87
2022-08-19T20:49:29.881Z,20.86
2022-08-19T20:51:56.679Z,20.86
2022-08-19T20:54:23.933Z,20.90
2022-08-19T20:56:50.542Z,20.96
2022-08-19T20:59:16.881Z,20.95
2022-08-19T21:01:43.218Z,20.99
2022-08-19T21:04:09.541Z,21.05
2022-08-19T21:06:36.227Z,21.08
2022-08-19T21:09:02.549Z,21.10
2022-08-19T21:11:28.936Z,21.11
2022-08-19T21:13:55.264Z,21.11
2022-08-19T21:16:21.611Z,21.19
2022-08-19T21:18:47.975Z,21.27
2022-08-19T21:21:14.351Z,21.25
2022-08-19T21:23:40.698Z,21.39
2022-08-19T21:26:07.133Z,21.38
2022-08-19T21:28:36.070Z,21.46
2022-08-19T21:31:05.090Z,21.42
2022-08-19T21:33:31.805Z,21.44
2022-08-19T21:35:59.017Z,21.46
2022-08-19T21:38:25.414Z,21.43
2022-08-19T21:40:51.770Z,21.38
2022-08-19T21:43:18.122Z,21.39
2022-08-19T21:45:46.443Z,21.39
2022-08-19T21:48:13.047Z,21.38
2022-08-19T21:50:39.377Z,21.35
2022-08-19T21:53:05.709Z,21.24
2022-08-19T21:55:32.123Z,21.10
2022-08-19T21:57:58.823Z,21.18
2022-08-19T22:00:26.878Z,21.21
2022-08-19T22:02:58.439Z,21.29
2022-08-19T22:05:25.492Z,21.45
2022-08-19T22:07:57.387Z,21.44
2022-08-19T22:10:28.307Z,21.39
2022-08-19T22:12:55.265Z,21.39
2022-08-19T22:15:23.032Z,21.39
2022-08-19T22:17:50.055Z,21.52
2022-08-19T22:20:20.498Z,21.52
2022-08-19T22:22:55.722Z,21.44
2022-08-19T22:25:31.489Z,21.31
2022-08-19T22:28:03.893Z,21.43
2022-08-19T22:30:33.754Z,21.47
2022-08-19T22:33:03.359Z,21.42
2022-08-19T22:35:32.456Z,21.52
2022-08-19T22:38:00.029Z,21.57
2022-08-19T22:40:29.180Z,21.57
2022-08-19T22:43:00.844Z,21.49
2022-08-19T22:45:27.986Z,21.38
2022-08-19T22:47:54.938Z,21.42
2022-08-19T22:50:21.475Z,21.39
2022-08-19T22:52:51.876Z,21.51
2022-08-19T22:55:19.120Z,21.44
2022-08-19T22:57:45.479Z,21.41
2022-08-19T23:00:12.400Z,21.46
2022-08-19T23:02:39.139Z,21.41
2022-08-19T23:05:18.403Z,21.31
2022-08-19T23:07:52.412Z,21.26
2022-08-19T23:10:26.723Z,21.12
2022-08-19T23:12:54.641Z,20.88
2022-08-19T23:15:23.289Z,20.98
2022-08-19T23:17:50.193Z,20.98
2022-08-19T23:20:17.035Z,20.98
2022-08-19T23:22:45.661Z,20.82
2022-08-19T23:25:16.129Z,20.82
2022-08-19T23:27:43.585Z,20.63
2022-08-19T23:30:10.699Z,20.63
2022-08-19T23:32:37.060Z,20.59
2022-08-19T23:35:04.755Z,20.58
2022-08-19T23:37:31.083Z,20.48
2022-08-19T23:39:57.479Z,20.59
2022-08-19T23:42:24.268Z,20.84
2022-08-19T23:44:52.195Z,20.66
2022-08-19T23:47:19.798Z,20.73
2022-08-19T23:49:46.223Z,20.83
2022-08-19T23:52:12.575Z,20.81
2022-08-19T23:54:43.520Z,20.82
2022-08-19T23:57:13.311Z,20.64
2022-08-19T23:59:40.886Z,20.84
